Time;durP1;ratioP1;P1;durP2;ratioP2;P2;SDS_P1;SDS_P2;PMS_P1;PMS_P2;Temp;Humidity;BMP_temperature;BMP_pressure;BME280_temperature;BME280_humidity;BME280_pressure;Samples;Min_cycle;Max_cycle;Signal;HPM_P1;HPM_P2
2024/02/28 00:00:31;;;;;;;44.08;24.30;;;;;;;12.50;100.00;100196.31;5090243;28;20139;-48
2024/02/28 00:03:00;;;;;;;39.60;24.27;;;;;;;12.55;100.00;100189.69;5090188;28;20048;-45
2024/02/28 00:05:28;;;;;;;40.28;24.20;;;;;;;12.64;100.00;100195.34;5090004;28;20040;-48
2024/02/28 00:07:58;;;;;;;40.75;24.05;;;;;;;12.67;100.00;100187.13;5090387;28;20072;-46
2024/02/28 00:10:27;;;;;;;43.58;25.48;;;;;;;12.71;100.00;100184.13;5093501;28;20135;-49
2024/02/28 00:12:55;;;;;;;44.72;23.73;;;;;;;12.72;100.00;100187.66;5093958;28;20091;-48
2024/02/28 00:15:24;;;;;;;40.17;23.67;;;;;;;12.70;100.00;100186.91;5093989;28;20048;-45
2024/02/28 00:17:53;;;;;;;37.70;24.58;;;;;;;12.67;100.00;100192.47;5094210;28;20044;-46
2024/02/28 00:20:21;;;;;;;41.33;24.98;;;;;;;12.65;100.00;100195.25;5094148;28;20055;-46
2024/02/28 00:22:50;;;;;;;47.05;25.67;;;;;;;12.60;100.00;100192.91;5094161;28;20043;-46
2024/02/28 00:25:20;;;;;;;43.72;25.85;;;;;;;12.57;100.00;100192.25;5093916;28;20051;-47
2024/02/28 00:27:48;;;;;;;41.72;25.75;;;;;;;12.52;100.00;100195.22;5093963;28;20127;-47
2024/02/28 00:30:18;;;;;;;44.20;24.30;;;;;;;12.47;100.00;100192.03;5093729;28;20048;-47
2024/02/28 00:32:46;;;;;;;45.80;26.38;;;;;;;12.53;100.00;100191.59;5093937;28;20401;-46
2024/02/28 00:35:15;;;;;;;43.03;26.35;;;;;;;12.54;100.00;100203.16;5093715;28;20047;-47
2024/02/28 00:37:43;;;;;;;38.95;24.52;;;;;;;12.49;100.00;100194.59;5093773;28;20412;-49
2024/02/28 00:40:13;;;;;;;41.00;25.55;;;;;;;12.50;100.00;100197.16;5093537;28;20503;-48
2024/02/28 00:42:42;;;;;;;41.70;26.17;;;;;;;12.54;100.00;100206.69;5093697;28;20101;-48
2024/02/28 00:45:11;;;;;;;40.33;24.95;;;;;;;12.57;100.00;100193.13;5093761;28;20285;-47
2024/02/28 00:47:40;;;;;;;42.08;25.35;;;;;;;12.63;100.00;100191.81;5093655;28;20388;-47
2024/02/28 00:50:09;;;;;;;41.03;25.15;;;;;;;12.59;100.00;100193.00;5093751;28;20044;-47
2024/02/28 00:52:37;;;;;;;40.78;24.90;;;;;;;12.57;100.00;100193.13;5093420;28;20143;-49
2024/02/28 00:55:06;;;;;;;44.50;25.63;;;;;;;12.57;100.00;100198.47;5093171;28;20052;-49
2024/02/28 00:57:35;;;;;;;39.58;25.13;;;;;;;12.63;100.00;100193.63;5093097;28;20119;-48
2024/02/28 01:00:07;;;;;;;36.72;23.67;;;;;;;12.57;100.00;100195.78;5093274;28;20040;-49
2024/02/28 01:02:36;;;;;;;38.33;23.90;;;;;;;12.52;100.00;100197.91;5093102;28;20051;-49
2024/02/28 01:05:05;;;;;;;38.50;22.95;;;;;;;12.42;100.00;100199.50;5092814;28;20128;-52
2024/02/28 01:07:34;;;;;;;40.22;23.60;;;;;;;12.38;100.00;100199.84;5093072;28;20044;-46
2024/02/28 01:10:02;;;;;;;41.63;24.02;;;;;;;12.42;100.00;100199.50;5092873;28;20048;-45
2024/02/28 01:12:31;;;;;;;39.22;22.85;;;;;;;12.47;100.00;100208.09;5092905;28;20048;-47
2024/02/28 01:15:00;;;;;;;39.20;24.60;;;;;;;12.48;100.00;100200.91;5093050;28;20335;-48
2024/02/28 01:17:30;;;;;;;37.85;23.73;;;;;;;12.41;100.00;100205.81;5092939;28;20044;-47
2024/02/28 01:19:58;;;;;;;42.33;22.55;;;;;;;12.24;100.00;100204.28;5092330;28;20051;-49
2024/02/28 01:22:27;;;;;;;40.20;24.35;;;;;;;12.33;100.00;100203.66;5092205;28;20052;-47
2024/02/28 01:24:55;;;;;;;35.70;23.50;;;;;;;12.40;100.00;100200.59;5092754;28;20496;-46
2024/02/28 01:27:23;;;;;;;41.85;24.95;;;;;;;12.30;100.00;100205.72;5095348;28;20123;-48
2024/02/28 01:29:53;;;;;;;42.63;25.75;;;;;;;12.20;100.00;100205.47;5093189;28;20044;-49
2024/02/28 01:32:21;;;;;;;43.13;25.27;;;;;;;12.25;100.00;100210.50;5092881;28;20394;-48
2024/02/28 01:34:51;;;;;;;39.88;25.42;;;;;;;12.35;100.00;100202.69;5092786;28;20044;-47
2024/02/28 01:37:20;;;;;;;45.92;25.88;;;;;;;12.23;100.00;100201.72;5093186;28;20097;-48
2024/02/28 01:39:48;;;;;;;45.58;25.30;;;;;;;12.09;100.00;100197.31;5092994;28;20082;-47
2024/02/28 01:42:16;;;;;;;40.92;25.75;;;;;;;11.95;100.00;100200.03;5092557;28;20058;-47
2024/02/28 01:44:48;;;;;;;42.78;25.90;;;;;;;11.84;100.00;100202.56;5092414;28;20047;-47
2024/02/28 01:47:17;;;;;;;42.20;25.98;;;;;;;11.83;100.00;100207.06;5092295;28;20075;-49
2024/02/28 01:49:47;;;;;;;39.70;25.63;;;;;;;11.96;100.00;100205.28;5092322;28;20048;-48
2024/02/28 01:52:18;;;;;;;42.42;26.48;;;;;;;12.01;100.00;100211.19;5092351;28;20056;-49
2024/02/28 01:54:47;;;;;;;40.17;25.60;;;;;;;12.16;100.00;100213.78;5092305;28;20131;-47
2024/02/28 01:57:16;;;;;;;41.70;25.27;;;;;;;12.21;100.00;100220.56;5092206;28;20079;-46
2024/02/28 01:59:46;;;;;;;40.35;24.40;;;;;;;12.19;100.00;100219.81;5092214;28;20541;-48
2024/02/28 02:02:14;;;;;;;39.88;23.55;;;;;;;12.10;100.00;100230.25;5091957;28;20091;-48
2024/02/28 02:04:42;;;;;;;39.47;22.58;;;;;;;12.12;100.00;100223.00;5091766;28;20074;-50
2024/02/28 02:07:11;;;;;;;39.08;23.58;;;;;;;12.11;100.00;100221.28;5092157;28;20048;-49
2024/02/28 02:09:40;;;;;;;40.67;22.98;;;;;;;12.07;100.00;100225.13;5091999;28;20455;-48
2024/02/28 02:12:09;;;;;;;42.85;24.20;;;;;;;12.04;100.00;100232.38;5091805;28;20052;-48
2024/02/28 02:14:37;;;;;;;35.70;23.08;;;;;;;12.09;100.00;100228.56;5092141;28;20052;-48
2024/02/28 02:17:06;;;;;;;38.15;23.27;;;;;;;11.86;100.00;100228.25;5091602;28;20056;-49
2024/02/28 02:19:34;;;;;;;40.85;22.98;;;;;;;11.87;100.00;100224.63;5091836;28;20441;-48
2024/02/28 02:22:06;;;;;;;35.88;22.08;;;;;;;11.86;100.00;100227.38;5091583;28;20492;-47
2024/02/28 02:24:36;;;;;;;35.05;22.85;;;;;;;11.74;100.00;100226.34;5091555;28;20048;-46
2024/02/28 02:27:04;;;;;;;36.35;22.55;;;;;;;11.89;100.00;100233.41;5091526;28;20072;-46
2024/02/28 02:29:33;;;;;;;37.25;21.55;;;;;;;11.81;100.00;100235.72;5091613;28;20040;-48
2024/02/28 02:32:01;;;;;;;35.92;21.35;;;;;;;11.62;100.00;100240.50;5091083;28;20048;-47
2024/02/28 02:34:29;;;;;;;37.40;21.98;;;;;;;11.40;100.00;100236.56;5091641;28;20079;-46
2024/02/28 02:36:58;;;;;;;39.08;22.10;;;;;;;11.62;100.00;100241.38;5091511;28;20137;-47
2024/02/28 02:39:26;;;;;;;35.88;21.80;;;;;;;11.74;100.00;100248.56;5091455;28;20211;-45
2024/02/28 02:41:56;;;;;;;36.78;21.85;;;;;;;11.73;100.00;100246.00;5091148;28;20048;-46
2024/02/28 02:44:24;;;;;;;35.60;22.33;;;;;;;11.82;100.00;100248.13;5091593;28;20044;-46
2024/02/28 02:46:52;;;;;;;33.13;21.27;;;;;;;11.84;100.00;100248.88;5091562;28;20043;-46
2024/02/28 02:49:21;;;;;;;36.35;21.60;;;;;;;11.82;100.00;100252.59;5091311;28;20151;-50
2024/02/28 02:51:49;;;;;;;37.63;22.48;;;;;;;11.73;100.00;100254.03;5091389;28;20504;-48
2024/02/28 02:54:17;;;;;;;38.22;21.70;;;;;;;11.54;100.00;100242.81;5091000;28;20165;-48
2024/02/28 02:56:46;;;;;;;35.30;21.60;;;;;;;11.67;100.00;100249.06;5090979;28;20125;-48
2024/02/28 02:59:15;;;;;;;40.08;21.83;;;;;;;11.79;100.00;100248.28;5091270;28;20467;-47
2024/02/28 03:01:44;;;;;;;35.55;21.48;;;;;;;11.77;100.00;100244.84;5091089;28;20463;-46
2024/02/28 03:04:12;;;;;;;36.80;20.77;;;;;;;11.74;100.00;100247.72;5093741;28;20147;-46
2024/02/28 03:06:40;;;;;;;31.20;19.67;;;;;;;11.73;100.00;100251.34;5090442;28;20044;-47
2024/02/28 03:09:09;;;;;;;36.35;21.08;;;;;;;11.71;100.00;100250.59;5090636;28;20052;-48
2024/02/28 03:11:38;;;;;;;32.45;20.70;;;;;;;11.69;100.00;100248.03;5090823;28;20063;-46
2024/02/28 03:14:06;;;;;;;34.50;20.15;;;;;;;11.84;100.00;100256.88;5090826;28;20136;-46
2024/02/28 03:16:37;;;;;;;35.17;20.60;;;;;;;11.78;100.00;100257.28;5090840;28;20044;-46
2024/02/28 03:19:06;;;;;;;34.05;19.10;;;;;;;11.64;100.00;100258.16;5090840;28;20052;-48
2024/02/28 03:21:34;;;;;;;33.33;19.80;;;;;;;11.68;100.00;100256.16;5090758;28;20100;-47
2024/02/28 03:24:02;;;;;;;33.58;19.02;;;;;;;11.66;100.00;100255.38;5090403;28;20519;-48
2024/02/28 03:26:31;;;;;;;32.53;18.15;;;;;;;11.73;100.00;100257.56;5090695;28;20044;-46
2024/02/28 03:28:59;;;;;;;30.98;17.52;;;;;;;11.80;100.00;100260.72;5090555;28;20105;-49
2024/02/28 03:31:28;;;;;;;31.20;17.75;;;;;;;11.87;100.00;100264.72;5090432;28;20048;-49
2024/02/28 03:33:58;;;;;;;27.85;17.02;;;;;;;11.93;100.00;100271.47;5090289;28;20105;-47
2024/02/28 03:36:28;;;;;;;32.88;17.52;;;;;;;11.91;100.00;100268.91;5090340;28;20051;-46
2024/02/28 03:38:56;;;;;;;27.90;16.63;;;;;;;11.74;100.00;100277.97;5090398;28;20473;-49
2024/02/28 03:41:24;;;;;;;32.15;17.75;;;;;;;11.72;100.00;100287.06;5090622;28;20067;-49
2024/02/28 03:43:53;;;;;;;30.27;18.48;;;;;;;11.80;100.00;100287.44;5091194;28;20097;-47
2024/02/28 03:46:21;;;;;;;33.15;18.67;;;;;;;11.85;100.00;100288.00;5094613;28;20044;-49
2024/02/28 03:48:50;;;;;;;33.08;19.30;;;;;;;11.79;100.00;100288.38;5094528;28;20404;-46
2024/02/28 03:51:20;;;;;;;35.10;20.20;;;;;;;11.58;100.00;100285.28;5094380;28;20040;-48
2024/02/28 03:53:47;;;;;;;33.58;19.83;;;;;;;11.42;100.00;100282.72;5094205;28;20449;-47
2024/02/28 03:56:22;;;;;;;34.97;20.17;;;;;;;11.51;100.00;100275.06;5094457;28;20056;-47
2024/02/28 03:58:54;;;;;;;34.05;19.48;;;;;;;11.57;100.00;100272.84;5094374;28;20170;-47
2024/02/28 04:01:22;;;;;;;34.30;19.08;;;;;;;11.40;100.00;100271.28;5094319;28;20044;-47
2024/02/28 04:03:51;;;;;;;33.55;20.15;;;;;;;11.57;100.00;100269.31;5094220;28;20060;-47
2024/02/28 04:06:21;;;;;;;37.20;21.10;;;;;;;11.57;100.00;100277.34;5094352;28;20135;-47
2024/02/28 04:08:49;;;;;;;33.13;19.63;;;;;;;11.58;100.00;100276.38;5094207;28;20048;-46
2024/02/28 04:11:17;;;;;;;35.13;19.27;;;;;;;11.64;100.00;100281.34;5094053;28;20067;-48
2024/02/28 04:13:45;;;;;;;35.40;19.33;;;;;;;11.55;100.00;100284.59;5093888;28;20060;-47
2024/02/28 04:16:14;;;;;;;31.70;19.77;;;;;;;11.45;100.00;100290.50;5094012;28;20040;-47
2024/02/28 04:18:43;;;;;;;30.30;18.52;;;;;;;11.63;100.00;100290.31;5093816;28;20056;-47
2024/02/28 04:21:11;;;;;;;32.65;18.83;;;;;;;11.64;100.00;100292.88;5093996;28;20055;-47
2024/02/28 04:23:41;;;;;;;36.22;19.70;;;;;;;11.69;100.00;100287.25;5093954;28;20071;-46
2024/02/28 04:26:10;;;;;;;33.00;19.23;;;;;;;11.72;100.00;100295.91;5093903;28;20040;-47
2024/02/28 04:28:38;;;;;;;30.90;18.20;;;;;;;11.68;100.00;100301.56;5093614;28;20125;-48
2024/02/28 04:31:06;;;;;;;29.63;18.58;;;;;;;11.71;100.00;100302.22;5093761;28;20043;-46
2024/02/28 04:33:35;;;;;;;33.58;19.05;;;;;;;11.59;100.00;100305.69;5093665;28;20056;-46
2024/02/28 04:36:04;;;;;;;31.77;18.33;;;;;;;11.65;100.00;100293.72;5093587;28;20437;-48
2024/02/28 04:38:32;;;;;;;29.90;18.42;;;;;;;11.65;100.00;100299.06;5093523;28;20177;-47
2024/02/28 04:41:02;;;;;;;32.45;18.35;;;;;;;11.70;100.00;100302.31;5093355;28;20432;-47
2024/02/28 04:43:30;;;;;;;29.17;17.83;;;;;;;11.65;100.00;100299.06;5093402;28;20052;-50
2024/02/28 04:45:58;;;;;;;32.35;19.05;;;;;;;11.58;100.00;100295.06;5093653;28;20426;-48
2024/02/28 04:48:26;;;;;;;30.85;19.35;;;;;;;11.66;100.00;100296.31;5093229;28;20498;-49
2024/02/28 04:50:55;;;;;;;35.25;19.00;;;;;;;11.67;100.00;100295.34;5093298;28;20051;-47
2024/02/28 04:53:23;;;;;;;31.95;19.15;;;;;;;11.40;100.00;100300.66;5093177;28;20469;-47
2024/02/28 04:55:51;;;;;;;32.88;20.88;;;;;;;11.47;100.00;100301.94;5092619;28;20052;-46
2024/02/28 04:58:21;;;;;;;32.15;19.00;;;;;;;11.60;100.00;100306.53;5093296;28;20044;-46
2024/02/28 05:00:50;;;;;;;34.30;19.95;;;;;;;11.50;100.00;100308.09;5092860;28;20604;-46
2024/02/28 05:03:18;;;;;;;31.80;19.35;;;;;;;11.58;100.00;100300.41;5092991;28;20412;-47
2024/02/28 05:05:46;;;;;;;33.13;19.35;;;;;;;11.51;100.00;100301.78;5093253;28;20090;-46
2024/02/28 05:08:15;;;;;;;28.35;18.05;;;;;;;11.51;100.00;100301.78;5092680;28;20048;-50
2024/02/28 05:10:43;;;;;;;33.30;18.23;;;;;;;11.46;100.00;100305.59;5092566;28;20610;-47
2024/02/28 05:13:11;;;;;;;35.70;19.63;;;;;;;11.42;100.00;100306.75;5093047;28;20048;-45
2024/02/28 05:15:41;;;;;;;35.78;19.33;;;;;;;11.33;100.00;100310.00;5092926;28;20064;-50
2024/02/28 05:18:09;;;;;;;33.42;18.63;;;;;;;11.43;100.00;100312.94;5092999;28;20075;-47
2024/02/28 05:20:38;;;;;;;33.15;19.98;;;;;;;11.52;100.00;100311.50;5092702;28;20122;-47
2024/02/28 05:23:06;;;;;;;32.20;19.17;;;;;;;11.59;100.00;100315.53;5092486;28;20105;-47
2024/02/28 05:25:34;;;;;;;38.63;18.95;;;;;;;11.62;100.00;100309.97;5092525;28;20097;-48
2024/02/28 05:28:02;;;;;;;34.17;18.92;;;;;;;11.28;100.00;100317.41;5092801;28;20055;-48
2024/02/28 05:30:32;;;;;;;31.38;18.70;;;;;;;11.42;100.00;100336.13;5092561;28;20506;-48
2024/02/28 05:33:02;;;;;;;30.60;17.92;;;;;;;11.56;100.00;100342.41;5092529;28;20052;-48
2024/02/28 05:35:31;;;;;;;30.65;18.08;;;;;;;11.62;100.00;100337.53;5092368;28;20564;-48
2024/02/28 05:37:59;;;;;;;31.50;17.88;;;;;;;11.64;100.00;100343.63;5092538;28;20139;-47
2024/02/28 05:40:27;;;;;;;33.90;16.88;;;;;;;11.62;100.00;100347.38;5092553;28;20393;-50
2024/02/28 05:42:56;;;;;;;33.00;18.08;;;;;;;11.59;100.00;100342.22;5092581;28;20058;-47
2024/02/28 05:45:24;;;;;;;34.40;16.48;;;;;;;11.62;100.00;100350.03;5092580;28;20047;-48
2024/02/28 05:47:52;;;;;;;31.42;18.13;;;;;;;11.58;100.00;100345.81;5092547;28;20048;-48
2024/02/28 05:50:22;;;;;;;30.15;18.05;;;;;;;11.61;100.00;100356.34;5092228;28;20074;-48
2024/02/28 05:52:50;;;;;;;29.42;17.58;;;;;;;11.61;100.00;100356.34;5092306;28;20080;-47
2024/02/28 05:55:21;;;;;;;33.35;17.63;;;;;;;11.44;100.00;100350.22;5091907;28;20147;-50
2024/02/28 05:57:50;;;;;;;28.17;15.70;;;;;;;11.55;100.00;100362.06;5092242;28;20051;-48
2024/02/28 06:00:19;;;;;;;31.77;18.10;;;;;;;11.49;100.00;100362.47;5092370;28;20131;-47
2024/02/28 06:02:48;;;;;;;33.42;17.75;;;;;;;11.57;100.00;100360.16;5091859;28;20058;-46
2024/02/28 06:05:16;;;;;;;32.60;17.67;;;;;;;11.63;100.00;100363.31;5092136;28;20416;-50
2024/02/28 06:07:46;;;;;;;32.78;18.33;;;;;;;11.57;100.00;100365.50;5091183;28;20047;-49
2024/02/28 06:10:14;;;;;;;29.45;17.33;;;;;;;11.45;100.00;100362.63;5091928;28;20392;-46
2024/02/28 06:12:45;;;;;;;31.30;16.98;;;;;;;11.60;100.00;100368.84;5091805;28;20131;-49
2024/02/28 06:15:13;;;;;;;32.35;16.83;;;;;;;11.63;100.00;100367.78;5091845;28;20166;-48
2024/02/28 06:17:41;;;;;;;30.65;16.70;;;;;;;11.41;100.00;100377.16;5091662;28;20396;-46
2024/02/28 06:20:10;;;;;;;32.35;17.35;;;;;;;11.56;100.00;100366.44;5091705;28;20501;-46
2024/02/28 06:22:39;;;;;;;29.50;16.17;;;;;;;11.46;100.00;100375.03;5091709;28;20054;-46
2024/02/28 06:25:17;;;;;;;30.02;16.42;;;;;;;11.53;100.00;100374.66;5091500;28;20569;-50
2024/02/28 06:27:48;;;;;;;31.90;17.02;;;;;;;11.49;100.00;100383.84;5085517;28;20036;-46
2024/02/28 06:30:16;;;;;;;26.85;15.77;;;;;;;11.44;100.00;100382.28;5070788;28;20048;-45
2024/02/28 06:32:45;;;;;;;26.40;15.52;;;;;;;11.33;100.00;100379.41;5086536;28;20054;-46
2024/02/28 06:35:13;;;;;;;29.98;15.77;;;;;;;11.35;100.00;100377.50;5091315;28;20052;-47
2024/02/28 06:37:42;;;;;;;30.20;16.42;;;;;;;11.47;100.00;100382.09;5090881;28;20048;-46
2024/02/28 06:40:13;;;;;;;26.70;15.60;;;;;;;11.53;100.00;100385.34;5090830;28;20066;-45
2024/02/28 06:42:41;;;;;;;28.45;16.33;;;;;;;11.57;100.00;100386.88;5088881;28;20062;-47
2024/02/28 06:45:10;;;;;;;35.80;17.17;;;;;;;11.42;100.00;100396.69;5091032;28;20048;-45
2024/02/28 06:47:38;;;;;;;31.08;16.98;;;;;;;11.35;100.00;100392.69;5090705;28;20055;-45
2024/02/28 06:50:07;;;;;;;31.35;15.35;;;;;;;11.14;100.00;100390.34;5090838;28;20051;-47
2024/02/28 06:52:36;;;;;;;29.48;15.77;;;;;;;11.01;100.00;100385.88;5089792;28;20558;-46
2024/02/28 06:55:09;;;;;;;34.35;16.70;;;;;;;11.12;100.00;100391.41;5090454;28;20079;-44
2024/02/28 06:57:40;;;;;;;28.02;15.93;;;;;;;11.19;100.00;100395.41;5090258;28;20758;-48
2024/02/28 07:00:11;;;;;;;27.90;14.82;;;;;;;11.20;100.00;100391.81;5091091;28;20071;-45
2024/02/28 07:02:39;;;;;;;25.00;14.90;;;;;;;11.18;100.00;100393.69;5089442;28;20044;-46
2024/02/28 07:05:08;;;;;;;30.33;16.67;;;;;;;11.31;100.00;100381.34;5090783;28;20043;-46
2024/02/28 07:07:37;;;;;;;31.65;17.60;;;;;;;11.18;100.00;100389.22;5090321;28;20480;-49
2024/02/28 07:10:06;;;;;;;33.38;16.55;;;;;;;11.32;100.00;100399.06;5090569;28;20138;-45
2024/02/28 07:12:34;;;;;;;31.38;17.25;;;;;;;11.53;100.00;100409.38;5088570;28;20046;-47
2024/02/28 07:15:05;;;;;;;30.40;17.52;;;;;;;11.23;100.00;100399.63;5090520;28;20079;-44
2024/02/28 07:17:34;;;;;;;29.73;16.77;;;;;;;11.44;100.00;100402.78;5090396;28;20039;-46
2024/02/28 07:20:02;;;;;;;32.80;17.83;;;;;;;11.27;100.00;100411.81;5090313;28;20046;-44
2024/02/28 07:22:31;;;;;;;34.17;18.38;;;;;;;11.51;100.00;100424.66;5088463;28;20378;-45
2024/02/28 07:24:59;;;;;;;30.25;17.08;;;;;;;11.51;100.00;100427.34;5090668;28;20189;-46
2024/02/28 07:27:27;;;;;;;37.67;17.42;;;;;;;11.76;100.00;100415.00;5090412;28;20425;-48
2024/02/28 07:29:55;;;;;;;31.23;17.08;;;;;;;11.80;100.00;100421.06;5090668;28;20123;-47
2024/02/28 07:32:25;;;;;;;29.60;17.58;;;;;;;11.98;100.00;100419.06;5088414;28;20094;-47
2024/02/28 07:34:54;;;;;;;33.03;17.98;;;;;;;12.10;100.00;100426.31;5090114;28;20078;-47
2024/02/28 07:37:22;;;;;;;29.25;17.77;;;;;;;12.14;100.00;100426.94;5090228;28;20048;-47
2024/02/28 07:39:50;;;;;;;31.50;17.63;;;;;;;12.33;100.00;100432.84;5090196;28;20050;-47
2024/02/28 07:42:19;;;;;;;35.60;18.42;;;;;;;12.42;100.00;100445.63;5088262;28;20051;-46
2024/02/28 07:44:47;;;;;;;30.50;17.20;;;;;;;12.50;100.00;100437.09;5090112;28;20044;-46
2024/02/28 07:47:16;;;;;;;32.50;15.52;;;;;;;12.43;100.00;100439.31;5089394;28;20138;-46
2024/02/28 07:49:45;;;;;;;30.85;16.42;;;;;;;12.69;100.00;100442.09;5090215;28;20052;-47
2024/02/28 07:52:14;;;;;;;26.65;13.73;;;;;;;12.32;100.00;100444.50;5088569;28;20062;-46
2024/02/28 07:54:44;;;;;;;27.00;14.23;;;;;;;12.41;100.00;100440.38;5089811;28;20466;-47
2024/02/28 07:57:15;;;;;;;25.67;12.10;;;;;;;12.42;100.00;100450.97;5090046;28;20136;-45
2024/02/28 07:59:44;;;;;;;25.30;13.27;;;;;;;12.14;100.00;100453.69;5082863;28;20036;-46
2024/02/28 08:02:12;;;;;;;26.98;14.00;;;;;;;12.30;100.00;100457.13;5085455;28;20123;-46
2024/02/28 08:04:41;;;;;;;23.17;13.77;;;;;;;12.30;100.00;100454.44;5089648;28;20063;-45
2024/02/28 08:07:11;;;;;;;31.42;14.38;;;;;;;12.06;100.00;100454.16;5089193;28;20084;-46
2024/02/28 08:09:39;;;;;;;28.25;14.20;;;;;;;12.00;100.00;100450.09;5089598;28;20071;-47
2024/02/28 08:12:08;;;;;;;29.45;13.75;;;;;;;12.07;100.00;100445.22;5087810;28;20044;-45
2024/02/28 08:14:36;;;;;;;25.70;13.75;;;;;;;12.36;100.00;100451.38;5089030;28;20524;-47
2024/02/28 08:17:04;;;;;;;27.48;13.80;;;;;;;12.17;100.00;100454.38;5089474;28;20105;-44
2024/02/28 08:19:35;;;;;;;25.65;14.05;;;;;;;12.48;100.00;100453.25;5089454;28;20044;-45
2024/02/28 08:22:03;;;;;;;26.27;14.10;;;;;;;12.74;100.00;100456.03;5087722;28;20048;-47
2024/02/28 08:24:33;;;;;;;25.75;13.88;;;;;;;12.94;100.00;100450.25;5089125;28;20457;-46
2024/02/28 08:27:01;;;;;;;24.27;13.02;;;;;;;12.87;100.00;100451.59;5088699;28;20048;-45
2024/02/28 08:29:29;;;;;;;25.65;13.82;;;;;;;12.85;100.00;100454.38;5089718;28;20495;-45
2024/02/28 08:31:58;;;;;;;22.98;12.75;;;;;;;12.87;100.00;100463.16;5091798;28;20483;-45
2024/02/28 08:34:26;;;;;;;29.23;13.23;;;;;;;12.81;100.00;100460.03;5093270;28;20617;-46
2024/02/28 08:36:54;;;;;;;26.05;13.40;;;;;;;12.97;100.00;100458.06;5092646;28;20052;-45
2024/02/28 08:39:23;;;;;;;23.15;12.55;;;;;;;12.90;100.00;100462.09;5092189;28;20048;-45
2024/02/28 08:41:53;;;;;;;25.40;12.68;;;;;;;12.65;100.00;100462.00;5090996;28;20059;-45
2024/02/28 08:44:21;;;;;;;25.35;12.63;;;;;;;12.63;100.00;100467.44;5092772;28;20405;-45
2024/02/28 08:46:49;;;;;;;20.98;12.35;;;;;;;12.69;100.00;100463.53;5093040;28;20094;-45
2024/02/28 08:49:17;;;;;;;23.80;13.40;;;;;;;12.60;100.00;100463.16;5092955;28;20376;-44
2024/02/28 08:51:46;;;;;;;26.10;12.55;;;;;;;12.75;100.00;100466.66;5091166;28;20452;-46
2024/02/28 08:54:17;;;;;;;24.95;12.65;;;;;;;12.89;100.00;100465.72;5092469;28;20059;-45
2024/02/28 08:56:45;;;;;;;21.10;11.95;;;;;;;13.00;100.00;100468.56;5092596;28;20052;-46
2024/02/28 08:59:25;;;;;;;21.08;11.32;;;;;;;12.86;100.00;100465.94;5072305;28;20131;-47
2024/02/28 09:01:53;;;;;;;22.95;11.82;;;;;;;13.05;100.00;100466.44;5080703;28;20040;-47
2024/02/28 09:04:22;;;;;;;22.23;12.55;;;;;;;13.06;100.00;100470.84;5092645;28;20090;-46
2024/02/28 09:06:50;;;;;;;22.27;12.02;;;;;;;13.06;100.00;100462.78;5092746;28;20051;-45
2024/02/28 09:09:18;;;;;;;22.48;12.05;;;;;;;13.04;100.00;100464.72;5092990;28;20058;-46
2024/02/28 09:11:47;;;;;;;22.73;12.15;;;;;;;13.21;100.00;100462.75;5091360;28;20458;-44
2024/02/28 09:14:15;;;;;;;20.50;11.85;;;;;;;13.34;100.00;100466.31;5092369;28;20412;-44
2024/02/28 09:16:44;;;;;;;24.63;12.35;;;;;;;13.28;100.00;100464.91;5092471;28;20101;-45
2024/02/28 09:19:12;;;;;;;20.17;12.10;;;;;;;13.48;100.00;100463.53;5092236;28;20102;-46
2024/02/28 09:21:41;;;;;;;20.77;11.35;;;;;;;13.50;100.00;100466.97;5090851;28;20040;-45
2024/02/28 09:24:09;;;;;;;27.13;12.18;;;;;;;13.81;100.00;100464.88;5092170;28;20048;-44
2024/02/28 09:26:39;;;;;;;23.90;12.35;;;;;;;13.75;100.00;100456.28;5092197;28;20083;-44
2024/02/28 09:29:08;;;;;;;21.50;12.52;;;;;;;13.71;100.00;100470.88;5091924;28;20079;-44
2024/02/28 09:31:36;;;;;;;33.33;12.77;;;;;;;13.68;100.00;100471.06;5090250;28;20503;-44
2024/02/28 09:34:09;;;;;;;24.58;12.80;;;;;;;14.00;100.00;100466.13;5092165;28;20095;-46
2024/02/28 09:36:41;;;;;;;;;;;;;;;14.33;100.00;100462.84;5092769;28;20055;-46
2024/02/28 09:39:09;;;;;;;23.73;11.38;;;;;;;14.42;100.00;100466.69;5091825;28;19924;-46
2024/02/28 09:41:38;;;;;;;24.88;10.77;;;;;;;14.49;100.00;100461.78;5089090;28;20048;-46
2024/02/28 09:44:07;;;;;;;21.80;10.23;;;;;;;14.49;100.00;100461.78;5091695;28;20048;-49
2024/02/28 09:46:36;;;;;;;24.77;11.10;;;;;;;14.22;100.00;100468.13;5091646;28;20512;-48
2024/02/28 09:49:06;;;;;;;23.80;10.68;;;;;;;14.33;100.00;100457.47;5092359;28;20048;-45
2024/02/28 09:51:36;;;;;;;23.58;10.55;;;;;;;14.38;100.00;100469.69;5089260;28;20044;-49
2024/02/28 09:54:05;;;;;;;22.67;10.38;;;;;;;14.21;100.00;100470.94;5089139;28;20056;-48
2024/02/28 09:56:35;;;;;;;24.42;10.77;;;;;;;14.27;100.00;100468.66;5090444;28;20048;-45
2024/02/28 09:59:03;;;;;;;18.30;10.85;;;;;;;14.29;100.00;100471.25;5091333;28;20044;-45
2024/02/28 10:01:38;;;;;;;19.98;10.52;;;;;;;14.40;100.00;100471.31;5090062;28;20058;-44
2024/02/28 10:04:10;;;;;;;24.05;11.23;;;;;;;14.42;100.00;100476.56;5091362;28;20051;-48
2024/02/28 10:06:38;;;;;;;22.38;10.95;;;;;;;14.37;100.00;100478.72;5090846;28;20494;-45
2024/02/28 10:09:10;;;;;;;21.63;10.13;;;;;;;14.43;100.00;100472.91;5090876;28;20112;-45
2024/02/28 10:11:40;;;;;;;22.55;10.75;;;;;;;14.46;100.00;100470.03;5089494;28;20742;-45
2024/02/28 10:14:10;;;;;;;17.40;10.00;;;;;;;14.52;100.00;100472.28;5091272;28;20386;-47
2024/02/28 10:16:38;;;;;;;20.63;10.93;;;;;;;14.49;100.00;100472.50;5090956;28;20048;-45
2024/02/28 10:19:08;;;;;;;19.30;10.68;;;;;;;14.54;100.00;100475.69;5090794;28;20393;-46
2024/02/28 10:21:36;;;;;;;18.40;10.40;;;;;;;14.68;100.00;100478.25;5089733;28;20411;-45
2024/02/28 10:24:06;;;;;;;23.35;11.43;;;;;;;14.76;100.00;100475.84;5090869;28;20052;-46
2024/02/28 10:26:43;;;;;;;20.08;10.73;;;;;;;14.96;100.00;100486.91;5091090;28;20070;-44
2024/02/28 10:29:12;;;;;;;18.25;10.30;;;;;;;15.22;100.00;100485.81;5089241;28;20138;-45
2024/02/28 10:31:40;;;;;;;20.77;10.95;;;;;;;15.05;100.00;100480.84;5089626;28;20105;-46
2024/02/28 10:34:10;;;;;;;21.15;11.10;;;;;;;15.03;100.00;100477.44;5091138;28;20052;-46
2024/02/28 10:36:39;;;;;;;20.65;10.30;;;;;;;15.20;100.00;100474.34;5090313;28;20086;-47
2024/02/28 10:39:09;;;;;;;18.52;10.07;;;;;;;15.40;100.00;100471.00;5090601;28;20067;-45
2024/02/28 10:41:39;;;;;;;20.58;10.88;;;;;;;15.56;100.00;100469.81;5089653;28;20105;-45
2024/02/28 10:44:07;;;;;;;18.13;10.20;;;;;;;15.54;100.00;100467.25;5090915;28;20058;-46
2024/02/28 10:46:37;;;;;;;23.85;10.63;;;;;;;15.75;100.00;100467.44;5090820;28;20046;-46
2024/02/28 10:49:06;;;;;;;21.80;10.98;;;;;;;15.54;100.00;100471.75;5090652;28;20059;-48
2024/02/28 10:51:37;;;;;;;23.15;11.57;;;;;;;15.35;100.00;100473.19;5088749;28;20054;-48
2024/02/28 10:54:11;;;;;;;20.50;11.35;;;;;;;15.45;100.00;100474.19;5090617;28;20143;-47
2024/02/28 10:56:40;;;;;;;21.60;11.23;;;;;;;15.49;100.00;100471.25;5090393;28;20437;-46
2024/02/28 10:59:11;;;;;;;21.50;11.05;;;;;;;15.66;100.00;100468.16;5090103;28;20412;-47
2024/02/28 11:01:43;;;;;;;22.90;10.93;;;;;;;15.80;100.00;100473.31;5089074;28;20040;-48
2024/02/28 11:04:13;;;;;;;20.75;11.68;;;;;;;16.01;100.00;100471.59;5090476;28;20056;-45
2024/02/28 11:06:52;;;;;;;21.48;11.13;;;;;;;15.90;100.00;100468.06;5090211;28;20055;-50
2024/02/28 11:09:23;;;;;;;20.80;11.18;;;;;;;16.05;100.00;100471.38;5089651;28;20055;-45